Time;durP1;ratioP1;P1;durP2;ratioP2;P2;SDS_P1;SDS_P2;PMS_P1;PMS_P2;Temp;Humidity;BMP_temperature;BMP_pressure;BME280_temperature;BME280_humidity;BME280_pressure;Samples;Min_cycle;Max_cycle;Signal;HPM_P1;HPM_P2
2021/12/02 00:04:45;;;;;;;19.73;6.07;;;13.00;99.90;;;;;;6260791;23;20196;-87
2021/12/02 00:07:17;;;;;;;1.63;0.87;;;13.00;99.90;;;;;;6262796;22;20168;-88
2021/12/02 00:09:51;;;;;;;6.47;1.23;;;13.00;99.90;;;;;;6264804;23;20638;-87
2021/12/02 00:12:23;;;;;;;1.37;0.70;;;13.00;99.90;;;;;;6268706;22;20194;-88
2021/12/02 00:14:58;;;;;;;1.97;0.80;;;13.00;99.90;;;;;;6259718;23;20164;-88
2021/12/02 00:17:35;;;;;;;5.73;0.90;;;13.00;99.90;;;;;;6265579;22;20202;-86
2021/12/02 00:23:30;;;;;;;3.23;0.90;;;13.00;99.90;;;;;;6272290;22;20171;-87
2021/12/02 00:26:04;;;;;;;1.77;1.00;;;12.90;99.90;;;;;;6258744;23;20227;-88
2021/12/02 00:28:40;;;;;;;2.07;1.00;;;12.90;99.90;;;;;;6266194;22;20182;-88
2021/12/02 00:31:17;;;;;;;2.10;0.70;;;12.90;99.90;;;;;;6268831;22;20167;-88
2021/12/02 00:33:54;;;;;;;2.53;0.70;;;12.90;99.90;;;;;;6268693;22;20191;-86
2021/12/02 00:39:14;;;;;;;1.97;0.73;;;12.90;99.90;;;;;;6291185;22;20217;-88
2021/12/02 00:41:47;;;;;;;2.90;0.80;;;12.90;99.90;;;;;;6294241;22;20183;-88
2021/12/02 00:44:21;;;;;;;1.50;0.80;;;12.90;99.90;;;;;;6293854;22;20190;-87
2021/12/02 00:46:53;;;;;;;2.60;0.90;;;12.90;99.90;;;;;;6297829;22;20203;-88
2021/12/02 00:49:25;;;;;;;1.37;0.90;;;12.90;99.90;;;;;;6297204;22;20175;-89
2021/12/02 00:52:03;;;;;;;1.83;0.87;;;12.90;99.90;;;;;;6297627;22;20267;-89
2021/12/02 00:54:43;;;;;;;2.27;1.00;;;12.90;99.90;;;;;;6291986;22;20262;-89
2021/12/02 00:57:18;;;;;;;1.87;0.80;;;12.90;99.90;;;;;;6282874;22;20206;-89
2021/12/02 00:59:51;;;;;;;1.53;1.00;;;12.80;99.90;;;;;;6279898;22;20183;-89
2021/12/02 01:02:26;;;;;;;1.73;0.90;;;12.90;99.90;;;;;;6289610;22;20246;-89
2021/12/02 01:04:58;;;;;;;4.83;2.03;;;12.90;99.90;;;;;;6280672;22;20178;-88
2021/12/02 01:07:30;;;;;;;1.77;0.90;;;12.90;99.90;;;;;;6281246;22;20239;-88
2021/12/02 01:10:05;;;;;;;2.80;1.00;;;12.90;99.90;;;;;;6281977;22;20159;-88
2021/12/02 01:12:38;;;;;;;1.90;0.93;;;12.80;99.90;;;;;;6283038;22;20166;-88
2021/12/02 01:15:11;;;;;;;3.33;2.80;;;12.90;99.90;;;;;;6279834;22;20202;-88
2021/12/02 01:17:44;;;;;;;1.63;1.00;;;12.90;99.90;;;;;;6280537;22;20181;-89
2021/12/02 01:20:16;;;;;;;1.80;1.00;;;12.90;99.90;;;;;;6290188;22;20171;-91
2021/12/02 01:22:51;;;;;;;2.17;0.97;;;12.90;99.90;;;;;;6285562;22;20644;-93
2021/12/02 01:25:26;;;;;;;2.50;0.97;;;12.90;99.90;;;;;;6297604;22;20194;-88
2021/12/02 01:28:03;;;;;;;3.00;1.30;;;12.90;99.90;;;;;;6288863;22;20205;-93
2021/12/02 01:30:35;;;;;;;1.57;0.90;;;12.90;99.90;;;;;;6298337;22;20298;-96
2021/12/02 01:33:09;;;;;;;3.60;2.30;;;12.90;99.90;;;;;;6291474;22;20585;-96
2021/12/02 01:38:26;;;;;;;4.03;1.63;;;12.90;99.90;;;;;;6311799;22;20206;-96
2021/12/02 02:02:42;;;;;;;1.33;0.87;;;12.80;99.90;;;;;;6295354;22;20217;-90
2021/12/02 02:05:17;;;;;;;2.13;0.80;;;12.80;99.90;;;;;;6295872;22;20195;-91
2021/12/02 02:07:57;;;;;;;1.53;0.73;;;12.80;99.90;;;;;;6297697;22;20642;-94
2021/12/02 02:10:31;;;;;;;5.77;1.23;;;12.80;99.90;;;;;;6294880;22;20185;-89
2021/12/02 02:13:05;;;;;;;2.83;0.93;;;12.80;99.90;;;;;;6288341;22;20616;-91
2021/12/02 02:15:38;;;;;;;1.60;1.20;;;12.80;99.90;;;;;;6284143;22;20178;-92
2021/12/02 02:18:19;;;;;;;1.83;0.60;;;12.80;99.90;;;;;;6287901;22;20197;-91
2021/12/02 02:20:59;;;;;;;1.60;0.70;;;12.80;99.90;;;;;;6291731;22;20175;-91
2021/12/02 02:23:35;;;;;;;2.10;0.60;;;12.80;99.90;;;;;;6300815;22;20174;-93
2021/12/02 02:26:10;;;;;;;0.50;0.50;;;12.90;99.90;;;;;;6302649;22;20202;-93
2021/12/02 02:28:43;;;;;;;1.17;0.60;;;12.80;99.90;;;;;;6270288;22;20205;-92
2021/12/02 02:31:16;;;;;;;1.33;0.60;;;12.80;99.90;;;;;;6303808;22;20181;-93
2021/12/02 02:33:50;;;;;;;1.87;0.70;;;12.80;99.90;;;;;;6298078;22;20233;-95
2021/12/02 02:36:27;;;;;;;2.90;1.00;;;12.80;99.90;;;;;;6299799;22;20234;-93
2021/12/02 02:39:02;;;;;;;1.17;0.87;;;12.80;99.90;;;;;;6296327;22;20167;-94
2021/12/02 02:41:43;;;;;;;1.57;0.67;;;12.80;99.90;;;;;;6298397;22;20162;-93
2021/12/02 02:44:16;;;;;;;1.10;0.70;;;12.70;99.90;;;;;;6299604;22;20171;-93
2021/12/02 02:49:37;;;;;;;2.57;0.60;;;12.80;99.90;;;;;;6304906;22;20210;-94
2021/12/02 02:52:15;;;;;;;2.50;1.40;;;12.70;99.90;;;;;;6325218;22;20204;-95
2021/12/02 02:54:56;;;;;;;0.70;0.70;;;12.70;99.90;;;;;;6261980;22;20182;-93
2021/12/02 02:57:36;;;;;;;1.83;0.60;;;12.70;99.90;;;;;;6281650;22;20530;-93
2021/12/02 03:00:12;;;;;;;1.03;0.60;;;12.70;99.90;;;;;;6284555;22;20181;-92
2021/12/02 03:02:51;;;;;;;0.47;0.47;;;12.70;99.90;;;;;;6281503;22;20191;-93
2021/12/02 03:05:34;;;;;;;1.57;0.80;;;12.70;99.90;;;;;;6280666;22;20202;-93
2021/12/02 03:08:17;;;;;;;1.53;0.57;;;12.70;99.90;;;;;;6281407;22;20186;-93
2021/12/02 03:10:55;;;;;;;0.60;0.30;;;12.70;99.90;;;;;;6281333;22;20253;-93
2021/12/02 03:13:37;;;;;;;0.40;0.40;;;12.70;99.90;;;;;;6281043;22;20171;-93
2021/12/02 03:18:56;;;;;;;1.53;0.50;;;12.80;99.90;;;;;;6284866;22;20178;-93
2021/12/02 03:21:30;;;;;;;0.30;0.30;;;12.80;99.90;;;;;;6281965;22;20171;-93
2021/12/02 03:24:04;;;;;;;0.63;0.63;;;12.80;99.90;;;;;;6281584;22;20167;-94
2021/12/02 03:26:36;;;;;;;0.80;0.50;;;12.70;99.90;;;;;;6279888;22;20225;-94
2021/12/02 03:29:09;;;;;;;0.40;0.40;;;12.70;99.90;;;;;;6283246;22;20208;-91
2021/12/02 03:31:42;;;;;;;0.70;0.40;;;12.70;99.90;;;;;;6281046;22;20687;-93
2021/12/02 03:34:16;;;;;;;0.40;0.40;;;12.70;99.90;;;;;;6280443;22;20271;-94
2021/12/02 03:36:51;;;;;;;0.40;0.33;;;12.60;99.90;;;;;;6281134;22;20251;-93
2021/12/02 03:39:25;;;;;;;1.13;0.30;;;12.70;99.90;;;;;;6279791;22;20244;-94
2021/12/02 03:42:02;;;;;;;0.80;0.40;;;12.60;99.90;;;;;;6280860;22;20163;-94
2021/12/02 03:44:35;;;;;;;0.30;0.30;;;12.60;99.90;;;;;;6290686;22;20190;-94
2021/12/02 03:47:10;;;;;;;0.87;0.40;;;12.60;99.90;;;;;;6300277;22;20573;-94
2021/12/02 03:49:47;;;;;;;1.10;0.40;;;12.60;99.90;;;;;;6286876;22;20182;-93
2021/12/02 03:52:19;;;;;;;0.90;0.50;;;12.60;99.90;;;;;;6255909;22;20260;-94
2021/12/02 03:54:58;;;;;;;0.40;0.30;;;12.50;99.90;;;;;;6287931;22;20228;-94
2021/12/02 03:57:32;;;;;;;0.70;0.40;;;12.50;99.90;;;;;;6270032;22;20186;-94
2021/12/02 04:00:09;;;;;;;0.30;0.30;;;12.50;99.90;;;;;;6292605;22;20175;-93
2021/12/02 04:02:44;;;;;;;1.30;0.50;;;12.50;99.90;;;;;;6295648;22;20194;-94
2021/12/02 04:05:20;;;;;;;2.63;0.40;;;12.50;99.90;;;;;;6296455;22;20205;-92
2021/12/02 04:07:53;;;;;;;0.60;0.33;;;12.50;99.90;;;;;;6296265;22;20290;-94
2021/12/02 04:10:27;;;;;;;0.50;0.40;;;12.40;99.90;;;;;;6270709;22;20159;-93
2021/12/02 04:13:06;;;;;;;0.60;0.40;;;12.40;99.90;;;;;;6296183;22;20259;-93
2021/12/02 04:15:49;;;;;;;0.63;0.57;;;12.50;99.90;;;;;;6266038;22;20174;-92
2021/12/02 04:18:22;;;;;;;0.53;0.40;;;12.50;99.90;;;;;;6295412;22;20178;-92
2021/12/02 04:20:55;;;;;;;0.60;0.30;;;12.50;99.90;;;;;;6269789;22;20167;-92
2021/12/02 04:23:28;;;;;;;0.90;0.57;;;12.50;99.90;;;;;;6295752;22;20174;-93
2021/12/02 04:26:01;;;;;;;1.80;0.50;;;12.40;99.90;;;;;;6283240;22;20191;-93
2021/12/02 04:28:34;;;;;;;1.57;0.40;;;12.40;99.90;;;;;;6263283;22;20201;-92
2021/12/02 04:31:06;;;;;;;1.13;0.63;;;12.40;99.90;;;;;;6296474;22;20175;-93
2021/12/02 04:33:40;;;;;;;1.07;0.60;;;12.30;99.90;;;;;;6298687;22;20167;-93
2021/12/02 04:44:18;;;;;;;2.07;0.40;;;12.30;99.90;;;;;;6292266;22;20213;-94
2021/12/02 04:46:53;;;;;;;1.17;0.50;;;12.40;99.90;;;;;;6302566;22;20242;-92
2021/12/02 04:52:10;;;;;;;0.77;0.47;;;12.30;99.90;;;;;;6272821;22;20214;-92
2021/12/02 04:54:43;;;;;;;0.80;0.40;;;12.30;99.90;;;;;;6293984;22;20231;-92
2021/12/02 04:57:15;;;;;;;0.40;0.40;;;12.30;99.90;;;;;;6282340;22;20190;-92
2021/12/02 04:59:49;;;;;;;1.00;0.37;;;12.30;99.90;;;;;;6282089;22;20195;-92
2021/12/02 05:02:21;;;;;;;2.20;0.47;;;12.20;99.90;;;;;;6281886;22;20164;-92
2021/12/02 05:04:53;;;;;;;1.37;0.60;;;12.20;99.90;;;;;;6282771;22;20181;-92
2021/12/02 05:07:25;;;;;;;1.50;0.30;;;12.20;99.90;;;;;;6282901;22;20286;-92
2021/12/02 05:09:58;;;;;;;0.83;0.60;;;12.30;99.90;;;;;;6285543;22;20492;-92
2021/12/02 05:12:32;;;;;;;1.23;0.47;;;12.30;99.90;;;;;;6283194;22;20170;-93
2021/12/02 05:15:08;;;;;;;0.63;0.50;;;12.30;99.90;;;;;;6284704;22;20163;-92
2021/12/02 05:17:41;;;;;;;0.43;0.40;;;12.20;99.90;;;;;;6284367;22;20185;-91
2021/12/02 05:20:15;;;;;;;1.60;0.50;;;12.10;99.90;;;;;;6297592;22;20170;-92
2021/12/02 05:23:08;;;;;;;1.77;0.43;;;12.10;99.90;;;;;;6290063;22;20179;-91
2021/12/02 05:25:43;;;;;;;0.97;0.40;;;12.10;99.90;;;;;;6295652;22;20311;-91
2021/12/02 05:28:18;;;;;;;0.30;0.30;;;12.00;99.90;;;;;;6295233;22;20195;-93
2021/12/02 05:30:56;;;;;;;0.70;0.33;;;12.00;99.90;;;;;;6300916;22;20194;-92
2021/12/02 05:33:30;;;;;;;0.80;0.40;;;12.00;99.90;;;;;;6288811;22;20178;-92
2021/12/02 05:36:05;;;;;;;0.43;0.40;;;12.00;99.90;;;;;;6301091;22;20210;-92
2021/12/02 05:38:40;;;;;;;0.40;0.37;;;11.90;99.90;;;;;;6290701;22;20546;-93
2021/12/02 05:41:16;;;;;;;0.47;0.40;;;11.90;99.90;;;;;;6319574;22;20197;-92
2021/12/02 05:43:50;;;;;;;0.87;0.23;;;11.80;99.90;;;;;;6318308;22;20189;-92
2021/12/02 05:46:34;;;;;;;0.40;0.30;;;11.70;99.90;;;;;;6315080;22;20689;-91
2021/12/02 05:49:07;;;;;;;1.03;0.40;;;11.70;99.90;;;;;;6322804;22;20190;-92
2021/12/02 05:51:40;;;;;;;0.50;0.40;;;11.70;99.90;;;;;;6316227;22;20253;-91
2021/12/02 05:54:11;;;;;;;1.53;0.40;;;11.70;99.90;;;;;;6318833;22;20175;-93
2021/12/02 05:56:45;;;;;;;0.50;0.50;;;11.70;99.90;;;;;;6329830;22;20174;-91
2021/12/02 05:59:21;;;;;;;0.80;0.67;;;11.70;99.90;;;;;;6325320;22;20628;-91
2021/12/02 06:01:59;;;;;;;1.10;0.50;;;11.70;99.90;;;;;;6329952;22;20210;-91
2021/12/02 06:04:34;;;;;;;1.10;0.70;;;11.70;99.90;;;;;;6325855;22;20245;-93
2021/12/02 06:07:09;;;;;;;0.80;0.50;;;11.70;99.90;;;;;;6328798;22;20174;-93
2021/12/02 06:09:41;;;;;;;1.17;0.50;;;11.70;99.90;;;;;;6328469;22;20177;-93
2021/12/02 06:12:15;;;;;;;0.60;0.53;;;11.70;99.90;;;;;;6327965;22;20166;-93
2021/12/02 06:14:47;;;;;;;2.57;0.60;;;11.70;99.90;;;;;;6312444;22;20230;-93
2021/12/02 06:17:23;;;;;;;1.93;0.73;;;11.70;99.90;;;;;;6317322;22;20182;-93
2021/12/02 06:20:00;;;;;;;0.60;0.50;;;11.70;99.90;;;;;;6316603;22;20175;-93
2021/12/02 06:22:33;;;;;;;1.27;0.60;;;11.70;99.90;;;;;;6317441;22;20166;-92
2021/12/02 06:27:57;;;;;;;0.60;0.60;;;11.70;99.90;;;;;;6294287;22;20205;-93
2021/12/02 06:30:29;;;;;;;1.70;0.80;;;11.60;99.90;;;;;;6313390;22;20174;-93
2021/12/02 06:33:02;;;;;;;2.20;0.60;;;11.60;99.90;;;;;;6313402;22;20174;-92
2021/12/02 06:35:42;;;;;;;0.83;0.50;;;11.60;99.90;;;;;;6328338;22;20518;-92
2021/12/02 06:38:16;;;;;;;0.63;0.43;;;11.60;99.90;;;;;;6349529;22;20222;-92
2021/12/02 06:40:56;;;;;;;0.90;0.63;;;11.60;99.90;;;;;;6323058;22;20168;-92
2021/12/02 06:43:28;;;;;;;0.67;0.67;;;11.60;99.90;;;;;;6356417;22;20165;-93
2021/12/02 06:46:01;;;;;;;1.27;0.80;;;11.60;99.90;;;;;;6346968;22;20174;-93
2021/12/02 06:48:42;;;;;;;1.53;0.60;;;11.60;99.90;;;;;;6347646;22;20236;-93
2021/12/02 06:51:19;;;;;;;0.40;0.40;;;11.50;99.90;;;;;;6336960;22;20218;-94
2021/12/02 06:53:53;;;;;;;1.57;0.40;;;11.30;99.90;;;;;;6366002;22;20162;-92
2021/12/02 06:56:46;;;;;;;5.87;0.80;;;11.20;99.90;;;;;;6365411;22;20213;-92
2021/12/02 06:59:17;;;;;;;4.33;0.60;;;11.00;99.90;;;;;;6365546;22;20177;-93
2021/12/02 07:02:03;;;;;;;2.17;0.60;;;11.00;99.90;;;;;;6356873;22;20162;-93
2021/12/02 07:04:42;;;;;;;0.40;0.40;;;10.90;99.90;;;;;;6347824;22;20173;-92
2021/12/02 07:07:19;;;;;;;5.67;0.53;;;10.90;99.90;;;;;;6346677;22;20176;-91
2021/12/02 07:09:53;;;;;;;3.87;0.50;;;10.80;99.90;;;;;;6346600;22;20197;-93
2021/12/02 07:12:32;;;;;;;0.97;0.40;;;10.80;99.90;;;;;;6345984;22;20178;-93
2021/12/02 07:15:11;;;;;;;1.27;0.33;;;10.80;99.90;;;;;;6344828;22;20217;-92
2021/12/02 07:17:44;;;;;;;0.70;0.30;;;10.70;99.90;;;;;;6345760;22;20505;-92
2021/12/02 07:20:21;;;;;;;1.37;0.40;;;10.70;99.90;;;;;;6345310;22;20189;-92
2021/12/02 07:22:53;;;;;;;1.50;0.47;;;10.60;99.90;;;;;;6318791;22;20172;-92
2021/12/02 07:25:31;;;;;;;2.43;0.33;;;10.50;99.90;;;;;;6345293;22;20177;-93
2021/12/02 07:28:06;;;;;;;0.40;0.40;;;10.40;99.90;;;;;;6345761;22;20240;-93
2021/12/02 07:30:39;;;;;;;2.07;0.40;;;10.40;99.90;;;;;;6344553;22;20169;-92
2021/12/02 07:33:12;;;;;;;0.97;0.50;;;10.50;99.90;;;;;;6344356;22;20175;-92
2021/12/02 07:35:50;;;;;;;0.67;0.33;;;10.50;99.90;;;;;;6343296;22;20193;-93
2021/12/02 07:38:22;;;;;;;1.50;0.40;;;10.60;99.90;;;;;;6344110;22;20208;-92
2021/12/02 07:40:56;;;;;;;1.07;0.40;;;10.50;99.90;;;;;;6344738;22;20177;-92
2021/12/02 07:43:29;;;;;;;1.67;0.50;;;10.40;99.90;;;;;;6344551;22;20165;-93
2021/12/02 07:46:05;;;;;;;0.47;0.40;;;10.20;99.90;;;;;;6318427;22;20193;-92
2021/12/02 07:48:39;;;;;;;1.90;0.50;;;10.20;99.90;;;;;;6343943;22;20182;-93
2021/12/02 07:51:15;;;;;;;0.40;0.30;;;10.30;99.90;;;;;;6343816;22;20169;-92
2021/12/02 07:53:48;;;;;;;2.80;0.50;;;10.30;99.90;;;;;;6342552;22;20173;-92
2021/12/02 07:56:24;;;;;;;0.97;0.60;;;10.30;99.90;;;;;;6348235;22;20465;-92
2021/12/02 07:58:55;;;;;;;1.13;0.40;;;10.20;99.90;;;;;;6343214;22;20173;-91
2021/12/02 08:01:27;;;;;;;0.50;0.40;;;10.10;99.90;;;;;;6343331;22;20162;-91
2021/12/02 08:03:59;;;;;;;0.67;0.57;;;10.10;99.90;;;;;;6346425;22;20235;-91
2021/12/02 08:06:32;;;;;;;1.87;0.60;;;10.10;99.90;;;;;;6341712;22;20197;-91
2021/12/02 08:09:06;;;;;;;0.40;0.40;;;10.20;99.90;;;;;;6342275;22;20198;-91
2021/12/02 08:11:39;;;;;;;1.40;0.40;;;10.20;99.90;;;;;;6343096;22;20174;-92
2021/12/02 08:14:14;;;;;;;0.80;0.33;;;10.30;99.90;;;;;;6315972;22;20296;-92
2021/12/02 08:16:47;;;;;;;1.33;0.33;;;10.30;99.90;;;;;;6343707;22;20161;-92
2021/12/02 08:19:19;;;;;;;3.57;0.40;;;10.30;99.90;;;;;;6353454;22;20214;-92
2021/12/02 08:21:54;;;;;;;3.03;0.40;;;10.40;99.90;;;;;;6353587;22;20231;-92
2021/12/02 08:24:26;;;;;;;2.27;0.60;;;10.40;99.90;;;;;;6345044;22;20538;-92
2021/12/02 08:26:58;;;;;;;1.43;0.60;;;10.40;99.90;;;;;;6317305;22;20557;-92
2021/12/02 08:29:32;;;;;;;1.17;0.50;;;10.40;99.90;;;;;;6345045;22;20244;-92
2021/12/02 08:32:05;;;;;;;2.47;0.60;;;10.40;99.90;;;;;;6347650;22;20169;-93
2021/12/02 08:34:38;;;;;;;2.20;0.80;;;10.40;99.90;;;;;;6342230;22;20204;-92
2021/12/02 08:37:13;;;;;;;1.63;0.77;;;10.40;99.90;;;;;;6346900;22;20192;-92
2021/12/02 08:39:46;;;;;;;2.17;0.70;;;10.40;99.90;;;;;;6344917;22;20200;-92
2021/12/02 08:42:20;;;;;;;2.27;0.50;;;10.50;99.90;;;;;;6319324;22;20169;-93
2021/12/02 08:44:53;;;;;;;1.03;0.37;;;10.40;99.90;;;;;;6343089;22;20181;-92
2021/12/02 08:47:28;;;;;;;1.20;0.50;;;10.40;99.90;;;;;;6347608;22;20177;-92
2021/12/02 08:49:59;;;;;;;2.73;0.73;;;10.40;99.90;;;;;;6347086;22;20309;-92
2021/12/02 08:52:33;;;;;;;2.57;0.40;;;10.40;99.90;;;;;;6347615;22;20170;-92
2021/12/02 08:55:07;;;;;;;1.37;0.30;;;10.40;99.90;;;;;;6343504;22;20200;-92
2021/12/02 08:57:48;;;;;;;4.10;0.40;;;10.40;99.90;;;;;;6344488;22;20237;-92
2021/12/02 09:00:22;;;;;;;1.73;0.40;;;10.40;99.90;;;;;;6351849;22;20243;-92
2021/12/02 09:02:55;;;;;;;3.20;0.30;;;10.40;99.90;;;;;;6327256;22;20173;-91
2021/12/02 09:05:27;;;;;;;3.73;0.50;;;10.40;99.90;;;;;;6365709;22;20174;-93
2021/12/02 09:08:01;;;;;;;1.43;0.50;;;10.20;99.90;;;;;;6367023;22;20154;-94
2021/12/02 09:10:34;;;;;;;1.30;0.47;;;10.10;99.90;;;;;;6365945;22;20193;-91
2021/12/02 09:13:10;;;;;;;3.80;1.20;;;10.00;99.90;;;;;;6364912;22;20225;-92
2021/12/02 09:15:42;;;;;;;2.27;0.50;;;10.00;99.90;;;;;;6352695;22;20263;-92
2021/12/02 09:18:14;;;;;;;2.27;0.70;;;10.00;99.90;;;;;;6359250;22;20269;-93
2021/12/02 09:20:46;;;;;;;2.10;0.50;;;10.00;99.90;;;;;;6365041;22;20217;-91
2021/12/02 09:23:21;;;;;;;2.13;0.40;;;10.00;99.90;;;;;;6338895;22;20169;-92
2021/12/02 09:25:53;;;;;;;2.43;0.47;;;10.10;99.90;;;;;;6364353;22;20267;-94
2021/12/02 09:28:26;;;;;;;1.03;0.40;;;10.10;99.90;;;;;;6336125;22;20189;-92
2021/12/02 09:30:59;;;;;;;0.63;0.40;;;10.10;99.90;;;;;;6363789;22;20217;-92
2021/12/02 09:33:41;;;;;;;0.70;0.40;;;10.00;99.90;;;;;;6363937;22;20154;-91
2021/12/02 09:36:12;;;;;;;2.47;0.50;;;10.00;99.90;;;;;;6362320;22;20221;-94
2021/12/02 09:38:48;;;;;;;3.17;0.50;;;10.00;99.90;;;;;;6363178;22;20607;-92
2021/12/02 09:41:20;;;;;;;1.63;0.30;;;9.90;99.90;;;;;;6349469;22;20185;-93
2021/12/02 09:43:52;;;;;;;4.30;0.60;;;9.90;99.90;;;;;;6347786;22;20507;-91
2021/12/02 09:46:24;;;;;;;1.07;0.70;;;9.90;99.90;;;;;;6346174;22;20205;-92
2021/12/02 09:49:01;;;;;;;2.87;0.60;;;9.90;99.90;;;;;;6346180;22;20174;-91
2021/12/02 09:51:38;;;;;;;3.47;0.80;;;9.80;99.90;;;;;;6348689;22;20208;-92
2021/12/02 09:54:28;;;;;;;1.57;0.40;;;9.90;99.90;;;;;;6345956;22;20706;-92
2021/12/02 09:57:02;;;;;;;2.20;0.63;;;9.90;99.90;;;;;;6346684;22;20170;-93
2021/12/02 09:59:46;;;;;;;1.10;0.53;;;9.90;99.90;;;;;;6346534;22;20172;-91
2021/12/02 10:02:20;;;;;;;1.23;0.37;;;9.90;99.90;;;;;;6345876;22;20193;-92
2021/12/02 10:04:56;;;;;;;2.40;0.47;;;9.90;99.90;;;;;;6344913;22;20641;-92
2021/12/02 10:07:33;;;;;;;1.27;0.40;;;9.90;99.90;;;;;;6346572;22;20217;-92
2021/12/02 10:10:14;;;;;;;2.10;0.60;;;9.90;99.90;;;;;;6322448;22;20193;-93
2021/12/02 10:13:11;;;;;;;1.50;0.50;;;9.90;99.90;;;;;;6359081;22;20188;-91
2021/12/02 10:15:54;;;;;;;0.80;0.40;;;9.90;99.90;;;;;;6335521;22;20150;-92
2021/12/02 10:18:38;;;;;;;0.47;0.40;;;10.00;99.90;;;;;;6336987;22;20309;-92
2021/12/02 10:21:21;;;;;;;1.73;0.70;;;9.90;99.90;;;;;;6356440;22;20201;-93
2021/12/02 10:24:04;;;;;;;0.70;0.40;;;9.90;99.90;;;;;;6359503;22;20166;-92
2021/12/02 10:26:57;;;;;;;0.87;0.30;;;9.90;99.90;;;;;;6360339;22;20221;-92
2021/12/02 10:29:50;;;;;;;0.50;0.40;;;9.90;99.90;;;;;;6328215;22;20197;-93
2021/12/02 10:32:25;;;;;;;1.90;0.40;;;9.80;99.90;;;;;;6349849;22;20651;-93
2021/12/02 10:35:00;;;;;;;2.53;0.60;;;9.80;99.90;;;;;;6319294;22;20189;-92
2021/12/02 10:37:35;;;;;;;1.60;0.53;;;9.80;99.90;;;;;;6346095;22;20168;-92
2021/12/02 10:40:10;;;;;;;2.23;0.47;;;9.80;99.90;;;;;;6346039;22;20192;-92
2021/12/02 10:42:46;;;;;;;2.73;0.43;;;9.80;99.90;;;;;;6344896;22;20173;-93
2021/12/02 10:45:23;;;;;;;2.67;0.50;;;9.80;99.90;;;;;;6344827;22;20629;-92
2021/12/02 10:47:57;;;;;;;2.83;1.00;;;9.80;99.90;;;;;;6345244;22;20199;-92
2021/12/02 10:50:29;;;;;;;1.30;0.70;;;9.80;99.90;;;;;;6344636;22;20204;-92
2021/12/02 10:53:07;;;;;;;1.73;0.80;;;9.80;99.90;;;;;;6345007;22;20185;-92
2021/12/02 10:55:39;;;;;;;2.73;0.80;;;9.80;99.90;;;;;;6317951;22;20178;-92
2021/12/02 10:58:13;;;;;;;2.67;0.83;;;9.80;99.90;;;;;;6345488;22;20178;-92
2021/12/02 11:00:46;;;;;;;5.30;1.17;;;9.80;99.90;;;;;;6318871;22;20215;-92
2021/12/02 11:03:22;;;;;;;3.20;0.80;;;9.80;99.90;;;;;;6320210;22;20202;-92
2021/12/02 11:05:57;;;;;;;3.90;0.80;;;9.80;99.90;;;;;;6344953;22;20192;-92
2021/12/02 11:08:36;;;;;;;3.43;1.43;;;9.80;99.90;;;;;;6345966;22;20166;-92
2021/12/02 11:11:24;;;;;;;3.87;0.83;;;9.80;99.90;;;;;;6349468;22;20261;-92
2021/12/02 11:14:03;;;;;;;4.10;0.87;;;9.80;99.90;;;;;;6365714;22;20192;-92
2021/12/02 11:16:38;;;;;;;4.77;1.03;;;9.70;99.90;;;;;;6364636;22;20169;-93
2021/12/02 11:19:22;;;;;;;9.43;1.13;;;9.80;99.90;;;;;;6364653;22;20249;-92
2021/12/02 11:22:06;;;;;;;3.57;1.00;;;9.70;99.90;;;;;;6360958;22;20237;-91
2021/12/02 11:24:41;;;;;;;7.57;1.27;;;9.70;99.90;;;;;;6349989;22;20174;-90
2021/12/02 11:27:17;;;;;;;5.90;1.10;;;9.60;99.90;;;;;;6345014;22;20169;-94
2021/12/02 11:29:57;;;;;;;5.97;1.10;;;9.60;99.90;;;;;;6344728;22;20244;-91
2021/12/02 11:32:40;;;;;;;4.40;1.00;;;9.60;99.90;;;;;;6345941;22;20229;-92
2021/12/02 11:35:27;;;;;;;5.20;1.27;;;9.60;99.90;;;;;;6344005;22;20182;-92
2021/12/02 11:38:04;;;;;;;4.27;1.03;;;9.60;99.90;;;;;;6344664;22;20184;-91
2021/12/02 11:40:40;;;;;;;4.80;1.00;;;9.60;99.90;;;;;;6345021;22;20174;-92
2021/12/02 11:43:16;;;;;;;4.03;1.37;;;9.60;99.90;;;;;;6350410;22;20215;-92
2021/12/02 11:45:50;;;;;;;3.00;0.80;;;9.60;99.90;;;;;;6303654;22;20244;-92
2021/12/02 11:48:25;;;;;;;5.17;1.07;;;9.70;99.90;;;;;;6282922;22;20229;-92
2021/12/02 11:51:03;;;;;;;3.10;0.87;;;9.70;99.90;;;;;;6282607;22;20191;-92
2021/12/02 11:53:35;;;;;;;3.00;0.83;;;9.60;99.90;;;;;;6282311;22;20246;-90
2021/12/02 11:56:09;;;;;;;4.50;0.97;;;9.70;99.90;;;;;;6282647;22;20254;-92
2021/12/02 11:58:43;;;;;;;2.77;0.80;;;9.70;99.90;;;;;;6282893;22;20166;-92
2021/12/02 12:01:21;;;;;;;3.53;1.10;;;9.70;99.90;;;;;;6282752;22;20527;-91
2021/12/02 12:03:56;;;;;;;2.20;0.80;;;9.70;99.90;;;;;;6282987;22;20239;-92
2021/12/02 12:06:31;;;;;;;6.73;0.90;;;9.70;99.90;;;;;;6281529;22;20490;-92
2021/12/02 12:09:11;;;;;;;5.27;0.90;;;9.70;99.90;;;;;;6282134;22;20178;-92
2021/12/02 12:11:47;;;;;;;4.33;1.20;;;9.70;99.90;;;;;;6285351;22;20229;-91
2021/12/02 12:14:35;;;;;;;4.90;1.17;;;9.60;99.90;;;;;;6282560;22;20166;-93
2021/12/02 12:17:12;;;;;;;5.53;1.13;;;9.60;99.90;;;;;;6277194;22;20204;-92
2021/12/02 12:19:47;;;;;;;4.43;1.10;;;9.70;99.90;;;;;;6254932;22;20242;-91
2021/12/02 12:22:30;;;;;;;9.17;1.47;;;9.60;99.90;;;;;;6279204;22;20179;-92
2021/12/02 12:25:06;;;;;;;5.60;1.10;;;9.60;99.90;;;;;;6283818;22;20571;-91
2021/12/02 12:27:39;;;;;;;7.50;1.10;;;9.60;99.90;;;;;;6278287;22;20186;-93
2021/12/02 12:30:24;;;;;;;5.97;1.57;;;9.60;99.90;;;;;;6253971;22;20184;-92
2021/12/02 12:33:05;;;;;;;3.83;1.10;;;9.50;99.90;;;;;;6255483;22;20179;-92
2021/12/02 12:38:44;;;;;;;5.87;1.07;;;9.50;99.90;;;;;;4907463;27;6596125;-91
2021/12/02 12:41:18;;;;;;;4.83;1.30;;;9.50;99.90;;;;;;5118723;28;20236;-91
2021/12/02 12:43:52;;;;;;;6.83;1.17;;;9.60;99.90;;;;;;5099892;28;20195;-92
2021/12/02 12:46:27;;;;;;;7.10;1.20;;;9.60;99.90;;;;;;5115960;28;20699;-91
2021/12/02 12:49:20;;;;;;;12.67;1.27;;;9.60;99.90;;;;;;5116791;28;20202;-91
2021/12/02 12:51:58;;;;;;;7.17;0.97;;;9.50;99.90;;;;;;5115828;28;20210;-92
2021/12/02 12:54:32;;;;;;;6.00;0.60;;;9.40;99.90;;;;;;5115597;28;20292;-92
2021/12/02 12:57:09;;;;;;;5.50;0.93;;;9.20;99.90;;;;;;5098318;28;20301;-93
2021/12/02 12:59:55;;;;;;;4.57;0.60;;;9.10;99.90;;;;;;5111405;28;20206;-93
2021/12/02 13:02:36;;;;;;;2.47;0.60;;;9.00;99.90;;;;;;5113946;28;20206;-94
2021/12/02 13:05:09;;;;;;;5.13;0.70;;;8.80;99.90;;;;;;5108829;28;20194;-93
2021/12/02 13:07:43;;;;;;;2.67;0.60;;;8.80;99.90;;;;;;5101901;28;20222;-93
2021/12/02 13:10:25;;;;;;;5.10;0.47;;;8.70;99.90;;;;;;5095892;28;20202;-92
2021/12/02 13:12:59;;;;;;;9.17;0.63;;;8.70;99.90;;;;;;5083942;28;20209;-93
2021/12/02 13:15:32;;;;;;;1.93;0.60;;;8.70;99.90;;;;;;5114752;28;20222;-92
2021/12/02 13:18:05;;;;;;;5.97;0.73;;;8.70;99.90;;;;;;5100454;28;20236;-92
2021/12/02 13:20:43;;;;;;;4.37;0.93;;;8.80;99.90;;;;;;5100846;28;20195;-92
2021/12/02 13:23:47;;;;;;;4.93;1.10;;;8.70;99.90;;;;;;5093513;28;20198;-92
2021/12/02 13:26:28;;;;;;;7.13;1.30;;;8.60;99.90;;;;;;5097735;28;20422;-93
2021/12/02 13:29:03;;;;;;;8.40;1.07;;;8.50;99.90;;;;;;5110589;28;20254;-92
2021/12/02 13:31:36;;;;;;;7.33;1.10;;;8.50;99.90;;;;;;5100434;28;20214;-92
2021/12/02 13:34:11;;;;;;;8.27;1.00;;;8.50;99.90;;;;;;5078391;28;20252;-92
2021/12/02 13:36:45;;;;;;;8.37;1.27;;;8.50;99.90;;;;;;5090251;28;20199;-93
2021/12/02 13:39:18;;;;;;;13.13;1.70;;;8.50;99.90;;;;;;5080176;28;20267;-91
2021/12/02 13:41:58;;;;;;;6.67;1.17;;;8.40;99.90;;;;;;5094613;28;20198;-92
2021/12/02 13:44:31;;;;;;;9.43;1.60;;;8.40;99.90;;;;;;5091995;28;20233;-91
2021/12/02 13:47:07;;;;;;;7.10;1.40;;;8.40;99.90;;;;;;5074465;28;20218;-92
2021/12/02 13:49:44;;;;;;;7.67;1.60;;;8.30;99.90;;;;;;5063556;28;20215;-92
2021/12/02 13:52:23;;;;;;;8.97;1.23;;;8.30;99.90;;;;;;5061640;28;20225;-92
2021/12/02 13:54:57;;;;;;;10.23;1.40;;;8.30;99.90;;;;;;5066884;28;20261;-91
2021/12/02 13:57:56;;;;;;;11.00;2.23;;;8.30;99.90;;;;;;5085937;28;20291;-93
2021/12/02 14:00:34;;;;;;;16.33;2.03;;;8.30;99.90;;;;;;5072449;28;20208;-93
2021/12/02 14:03:19;;;;;;;7.37;1.70;;;8.30;99.90;;;;;;5087582;28;20218;-91
2021/12/02 14:05:56;;;;;;;9.50;1.83;;;8.30;99.90;;;;;;5085233;28;20213;-92
2021/12/02 14:08:31;;;;;;;9.87;1.80;;;8.20;99.90;;;;;;5111863;23;20238;-93
2021/12/02 14:11:06;;;;;;;10.47;1.70;;;8.20;99.90;;;;;;5085408;28;20203;-92
2021/12/02 14:13:50;;;;;;;14.43;2.40;;;8.20;99.90;;;;;;5085681;28;20215;-92
2021/12/02 14:17:08;;;;;;;11.67;2.03;;;8.30;99.90;;;;;;5072366;28;20220;-93
2021/12/02 14:19:55;;;;;;;9.73;1.60;;;8.30;99.90;;;;;;5063477;28;20204;-92
2021/12/02 14:22:34;;;;;;;13.87;1.93;;;8.30;99.90;;;;;;5062495;28;20628;-93
2021/12/02 14:25:19;;;;;;;9.43;1.60;;;8.30;99.90;;;;;;5064777;28;20541;-92
2021/12/02 14:28:21;;;;;;;15.43;2.40;;;8.20;99.90;;;;;;5056629;28;20212;-92
2021/12/02 14:30:58;;;;;;;15.43;2.20;;;8.30;99.90;;;;;;5062316;28;20619;-91
2021/12/02 14:33:35;;;;;;;10.17;2.00;;;8.30;99.90;;;;;;5066367;28;20204;-92